createdAt,value
2022-08-27T00:02:20.075Z,101707.81
2022-08-27T00:04:51.828Z,101709.63
2022-08-27T00:07:20.298Z,101708.75
2022-08-27T00:09:48.926Z,101709.69
2022-08-27T00:12:17.484Z,101705.25
2022-08-27T00:14:46.710Z,101710.63
2022-08-27T00:17:15.991Z,101701.81
2022-08-27T00:19:44.428Z,101699.16
2022-08-27T00:22:13.433Z,101700.94
2022-08-27T00:24:46.443Z,101690.31
2022-08-27T00:27:18.025Z,101689.44
2022-08-27T00:29:47.939Z,101684.13
2022-08-27T00:32:17.324Z,101685.91
2022-08-27T00:34:45.693Z,101683.25
2022-08-27T00:37:14.768Z,101686.84
2022-08-27T00:39:43.237Z,101681.50
2022-08-27T00:42:11.815Z,101685.97
2022-08-27T00:44:40.183Z,101680.63
2022-08-27T00:47:17.176Z,101684.22
2022-08-27T00:49:52.633Z,101678.00
2022-08-27T00:52:31.888Z,101684.22
2022-08-27T00:55:18.586Z,101678.03
2022-08-27T00:57:53.083Z,101682.44
2022-08-27T01:00:21.616Z,101679.78
2022-08-27T01:02:49.998Z,101685.09
2022-08-27T01:05:23.134Z,101685.09
2022-08-27T01:08:02.402Z,101672.66
2022-08-27T01:10:34.546Z,101678.88
2022-08-27T01:13:03.788Z,101685.06
2022-08-27T01:15:33.047Z,101679.75
2022-08-27T01:18:05.083Z,101682.41
2022-08-27T01:20:51.734Z,101683.28
2022-08-27T01:23:40.866Z,101689.50
2022-08-27T01:26:11.622Z,101682.41
2022-08-27T01:28:41.323Z,101678.84
2022-08-27T01:31:12.583Z,101681.53
2022-08-27T01:33:41.563Z,101677.97
2022-08-27T01:36:10.335Z,101681.53
2022-08-27T01:38:38.766Z,101679.75
2022-08-27T01:41:09.787Z,101680.63
2022-08-27T01:43:38.250Z,101674.41
2022-08-27T01:46:06.560Z,101671.78
2022-08-27T01:48:35.238Z,101688.63
2022-08-27T01:51:04.513Z,101685.97
2022-08-27T01:53:33.023Z,101687.75
2022-08-27T01:56:01.542Z,101686.91
2022-08-27T01:58:31.460Z,101694.88
2022-08-27T02:01:08.708Z,101688.69
2022-08-27T02:03:40.033Z,101689.63
2022-08-27T02:06:11.658Z,101691.41
2022-08-27T02:08:40.799Z,101691.41
2022-08-27T02:11:10.075Z,101688.75
2022-08-27T02:13:39.522Z,101694.09
2022-08-27T02:16:08.902Z,101694.09
2022-08-27T02:18:38.446Z,101690.50
2022-08-27T02:21:10.979Z,101692.28
2022-08-27T02:23:40.274Z,101689.63
2022-08-27T02:26:08.621Z,101681.59
2022-08-27T02:28:37.168Z,101690.47
2022-08-27T02:31:05.525Z,101682.44
2022-08-27T02:33:35.297Z,101685.97
2022-08-27T02:36:04.018Z,101681.56
2022-08-27T02:38:34.942Z,101690.38
2022-08-27T02:41:03.701Z,101682.38
2022-08-27T02:43:34.377Z,101692.09
2022-08-27T02:46:05.081Z,101692.09
2022-08-27T02:48:37.446Z,101692.09
2022-08-27T02:51:07.362Z,101690.28
2022-08-27T02:53:37.182Z,101698.25
2022-08-27T02:56:07.431Z,101688.50
2022-08-27T02:58:36.361Z,101684.97
2022-08-27T03:01:05.394Z,101685.84
2022-08-27T03:03:39.622Z,101691.16
2022-08-27T03:06:09.039Z,101693.88
2022-08-27T03:08:52.153Z,101692.09
2022-08-27T03:11:23.575Z,101699.22
2022-08-27T03:13:52.466Z,101687.72
2022-08-27T03:16:21.314Z,101683.31
2022-08-27T03:18:49.902Z,101685.97
2022-08-27T03:21:21.278Z,101685.09
2022-08-27T03:23:50.662Z,101681.59
2022-08-27T03:26:19.546Z,101689.56
2022-08-27T03:28:48.077Z,101685.16
2022-08-27T03:31:27.052Z,101691.41
2022-08-27T03:33:59.404Z,101686.09
2022-08-27T03:36:29.939Z,101683.44
2022-08-27T03:38:58.962Z,101682.56
2022-08-27T03:41:53.994Z,101680.84
2022-08-27T03:44:21.758Z,101687.97
2022-08-27T03:46:51.730Z,101680.84
2022-08-27T03:49:21.515Z,101683.53
2022-08-27T03:51:51.648Z,101684.44
2022-08-27T03:54:21.175Z,101686.25
2022-08-27T03:56:49.602Z,101693.38
2022-08-27T03:59:17.914Z,101685.38
2022-08-27T04:01:46.493Z,101691.63
2022-08-27T04:04:14.805Z,101688.09
2022-08-27T04:06:43.270Z,101685.44
2022-08-27T04:09:11.650Z,101688.16
2022-08-27T04:11:40.272Z,101683.72
2022-08-27T04:14:24.970Z,101681.09
2022-08-27T04:16:56.805Z,101683.78
2022-08-27T04:19:28.398Z,101675.84
2022-08-27T04:22:05.887Z,101681.16
2022-08-27T04:24:41.153Z,101680.34
2022-08-27T04:27:11.043Z,101674.16
2022-08-27T04:29:39.817Z,101677.69
2022-08-27T04:32:08.918Z,101670.63
2022-08-27T04:34:37.401Z,101671.53
2022-08-27T04:37:05.875Z,101668.88
2022-08-27T04:39:40.576Z,101676.88
2022-08-27T04:42:08.962Z,101678.66
2022-08-27T04:44:37.262Z,101675.13
2022-08-27T04:47:08.819Z,101675.13
2022-08-27T04:49:37.398Z,101683.97
2022-08-27T04:52:06.149Z,101673.34
2022-08-27T04:54:35.290Z,101676.00
2022-08-27T04:57:05.525Z,101678.59
2022-08-27T04:59:35.443Z,101678.59
2022-08-27T05:02:06.460Z,101679.47
2022-08-27T05:04:38.864Z,101678.56
2022-08-27T05:07:09.421Z,101681.22
2022-08-27T05:09:38.175Z,101682.06
2022-08-27T05:12:07.756Z,101686.47
2022-08-27T05:14:37.386Z,101678.44
2022-08-27T05:17:05.779Z,101676.66
2022-08-27T05:19:34.106Z,101685.44
2022-08-27T05:22:02.606Z,101680.97
2022-08-27T05:24:32.511Z,101681.78
2022-08-27T05:27:02.170Z,101679.06
2022-08-27T05:29:31.745Z,101678.97
2022-08-27T05:32:00.161Z,101681.56
2022-08-27T05:34:30.758Z,101678.78
2022-08-27T05:37:00.161Z,101679.56
2022-08-27T05:39:29.229Z,101682.09
2022-08-27T05:41:57.809Z,101668.63
2022-08-27T05:44:42.112Z,101674.72
2022-08-27T05:47:11.152Z,101681.75
2022-08-27T05:49:39.488Z,101678.13
2022-08-27T05:52:10.477Z,101673.56
2022-08-27T05:54:40.240Z,101685.84
2022-08-27T05:57:08.616Z,101675.06
2022-08-27T05:59:55.853Z,101682.06
2022-08-27T06:02:25.856Z,101685.44
2022-08-27T06:04:54.420Z,101680.88
2022-08-27T06:07:23.907Z,101677.16
2022-08-27T06:09:52.344Z,101678.72
2022-08-27T06:12:28.296Z,101685.63
2022-08-27T06:14:57.641Z,101681.09
2022-08-27T06:17:26.007Z,101683.66
2022-08-27T06:19:54.431Z,101684.47
2022-08-27T06:22:23.659Z,101696.84
2022-08-27T06:24:52.041Z,101688.84
2022-08-27T06:27:20.749Z,101701.34
2022-08-27T06:29:49.173Z,101695.28
2022-08-27T06:32:17.596Z,101704.38
2022-08-27T06:34:46.106Z,101711.59
2022-08-27T06:37:14.436Z,101711.72
2022-08-27T06:39:42.813Z,101708.31
2022-08-27T06:42:12.728Z,101710.16
2022-08-27T06:44:41.751Z,101711.13
2022-08-27T06:47:10.669Z,101713.00
2022-08-27T06:49:40.937Z,101724.56
2022-08-27T06:52:09.462Z,101723.72
2022-08-27T06:54:37.732Z,101728.19
2022-08-27T06:57:06.060Z,101724.66
2022-08-27T06:59:34.573Z,101728.19
2022-08-27T07:02:05.150Z,101725.50
2022-08-27T07:04:34.175Z,101723.69
2022-08-27T07:07:06.648Z,101732.53
2022-08-27T07:09:35.238Z,101718.22
2022-08-27T07:12:05.219Z,101727.09
2022-08-27T07:14:38.481Z,101726.16
2022-08-27T07:17:11.377Z,101732.41
2022-08-27T07:19:45.370Z,101734.13
2022-08-27T07:22:13.789Z,101734.97
2022-08-27T07:24:42.214Z,101728.72
2022-08-27T07:27:11.057Z,101731.34
2022-08-27T07:29:39.798Z,101740.16
2022-08-27T07:32:09.225Z,101742.63
2022-08-27T07:34:39.867Z,101745.91
2022-08-27T07:37:09.445Z,101741.38
2022-08-27T07:39:37.797Z,101747.59
2022-08-27T07:42:24.861Z,101746.75
2022-08-27T07:44:53.222Z,101749.47
2022-08-27T07:47:21.849Z,101753.03
2022-08-27T07:49:55.069Z,101750.38
2022-08-27T07:52:26.686Z,101755.75
2022-08-27T07:54:55.446Z,101759.34
2022-08-27T07:57:23.920Z,101752.19
2022-08-27T07:59:53.408Z,101758.34
2022-08-27T08:02:21.808Z,101762.72
2022-08-27T08:04:50.268Z,101759.13
2022-08-27T08:07:18.750Z,101758.13
2022-08-27T08:09:50.192Z,101756.31
2022-08-27T08:12:19.405Z,101759.78
2022-08-27T08:14:57.954Z,101760.53
2022-08-27T08:17:26.726Z,101755.03
2022-08-27T08:20:15.741Z,101760.13
2022-08-27T08:22:45.836Z,101754.63
2022-08-27T08:25:14.597Z,101756.38
2022-08-27T08:27:43.462Z,101778.66
2022-08-27T08:30:14.379Z,101764.47
2022-08-27T08:32:43.401Z,101770.78
2022-08-27T08:35:13.540Z,101770.00
2022-08-27T08:37:46.063Z,101778.13
2022-08-27T08:40:45.228Z,101771.91
2022-08-27T08:43:26.867Z,101778.13
2022-08-27T08:45:58.582Z,101771.03
2022-08-27T08:48:30.126Z,101778.13
2022-08-27T08:51:10.284Z,101777.25
2022-08-27T08:54:05.207Z,101776.31
2022-08-27T08:56:55.079Z,101781.66
2022-08-27T08:59:31.800Z,101793.19
2022-08-27T09:02:00.917Z,101792.22
2022-08-27T09:04:29.889Z,101788.66
2022-08-27T09:07:08.582Z,101784.09
2022-08-27T09:10:07.845Z,101795.56
2022-08-27T09:12:36.634Z,101788.38
2022-08-27T09:15:11.375Z,101791.91
2022-08-27T09:17:44.882Z,101791.00
2022-08-27T09:20:14.606Z,101790.97
2022-08-27T09:22:57.432Z,101804.34
2022-08-27T09:25:31.773Z,101801.72
2022-08-27T09:28:08.410Z,101813.34
2022-08-27T09:30:43.704Z,101810.69
2022-08-27T09:33:12.946Z,101808.03
2022-08-27T09:35:44.786Z,101818.69
2022-08-27T09:38:28.119Z,101807.09
2022-08-27T09:41:00.951Z,101809.81
2022-08-27T09:43:31.646Z,101815.94
2022-08-27T09:46:05.359Z,101809.69
2022-08-27T09:48:36.623Z,101815.81
2022-08-27T09:51:09.982Z,101813.81
2022-08-27T09:53:41.572Z,101813.56
2022-08-27T09:56:20.838Z,101811.47
2022-08-27T09:59:10.949Z,101799.31
2022-08-27T10:01:53.046Z,101799.91
2022-08-27T10:04:50.440Z,101800.41
2022-08-27T10:07:22.868Z,101809.94
2022-08-27T10:09:58.621Z,101812.38
2022-08-27T10:12:44.639Z,101809.50
2022-08-27T10:15:14.545Z,101811.00
2022-08-27T10:18:02.583Z,101808.31
2022-08-27T10:20:31.023Z,101813.84
2022-08-27T10:23:26.594Z,101809.59
2022-08-27T10:26:04.664Z,101818.78
2022-08-27T10:28:40.349Z,101810.03
2022-08-27T10:31:17.545Z,101816.31
2022-08-27T10:34:16.431Z,101815.22
2022-08-27T10:36:52.229Z,101810.63
2022-08-27T10:39:40.291Z,101819.34
2022-08-27T10:42:23.803Z,101806.81
2022-08-27T10:45:08.013Z,101817.34
2022-08-27T10:48:11.002Z,101809.25
2022-08-27T10:50:57.775Z,101804.94
2022-08-27T10:54:08.006Z,101817.56
2022-08-27T10:56:44.306Z,101813.16
2022-08-27T10:59:28.771Z,101813.69
2022-08-27T11:02:06.525Z,101812.53
2022-08-27T11:04:49.169Z,101809.31
2022-08-27T11:07:23.662Z,101809.06
2022-08-27T11:10:10.679Z,101808.91
2022-08-27T11:12:44.513Z,101807.78
2022-08-27T11:15:21.065Z,101809.53
2022-08-27T11:18:11.429Z,101814.69
2022-08-27T11:20:57.691Z,101814.47
2022-08-27T11:23:46.724Z,101816.81
2022-08-27T11:26:15.982Z,101809.34
2022-08-27T11:28:52.579Z,101819.81
2022-08-27T11:31:21.141Z,101821.28
2022-08-27T11:34:15.316Z,101809.53
2022-08-27T11:37:08.339Z,101815.13
2022-08-27T11:39:43.324Z,101815.63
2022-08-27T11:42:33.524Z,101811.13
2022-08-27T11:45:33.195Z,101818.91
2022-08-27T11:48:15.169Z,101818.81
2022-08-27T11:50:54.633Z,101813.47
2022-08-27T11:53:35.587Z,101811.88
2022-08-27T11:56:44.232Z,101814.44
2022-08-27T11:59:28.466Z,101812.69
2022-08-27T12:02:16.129Z,101808.19
2022-08-27T12:04:48.855Z,101806.19
2022-08-27T12:07:17.992Z,101813.22
2022-08-27T12:10:16.992Z,101803.25
2022-08-27T12:13:02.720Z,101804.78
2022-08-27T12:16:00.455Z,101808.81
2022-08-27T12:18:37.911Z,101812.94
2022-08-27T12:21:24.025Z,101798.88
2022-08-27T12:24:14.338Z,101806.19
2022-08-27T12:27:01.824Z,101804.41
2022-08-27T12:29:43.882Z,101798.16
2022-08-27T12:32:26.690Z,101808.22
2022-08-27T12:35:37.609Z,101797.78
2022-08-27T12:38:22.913Z,101804.06
2022-08-27T12:41:00.521Z,101801.16
2022-08-27T12:43:33.596Z,101800.25
2022-08-27T12:46:06.826Z,101802.91
2022-08-27T12:48:44.866Z,101806.78
2022-08-27T12:51:21.247Z,101810.75
2022-08-27T12:54:29.951Z,101797.78
2022-08-27T12:57:28.890Z,101807.84
2022-08-27T13:00:37.833Z,101801.09
2022-08-27T13:03:07.038Z,101799.66
2022-08-27T13:05:42.659Z,101806.06
2022-08-27T13:08:27.985Z,101802.59
2022-08-27T13:10:58.013Z,101799.16
2022-08-27T13:13:26.646Z,101802.00
2022-08-27T13:15:59.469Z,101798.53
2022-08-27T13:18:33.833Z,101803.06
2022-08-27T13:21:25.524Z,101797.03
2022-08-27T13:24:04.105Z,101804.06
2022-08-27T13:26:37.605Z,101791.19
2022-08-27T13:29:09.374Z,101799.78
2022-08-27T13:31:38.686Z,101802.50
2022-08-27T13:34:07.757Z,101802.56
2022-08-27T13:36:54.273Z,101805.22
2022-08-27T13:39:23.048Z,101814.19
2022-08-27T13:41:52.778Z,101799.97
2022-08-27T13:44:25.443Z,101798.28
2022-08-27T13:47:05.285Z,101803.88
2022-08-27T13:49:39.868Z,101795.97
2022-08-27T13:52:29.357Z,101797.56
2022-08-27T13:55:16.583Z,101802.03
2022-08-27T13:57:52.045Z,101793.91
2022-08-27T14:00:27.305Z,101797.28
2022-08-27T14:02:56.646Z,101803.41
2022-08-27T14:05:25.068Z,101799.13
2022-08-27T14:07:53.517Z,101809.94
2022-08-27T14:10:37.073Z,101810.91
2022-08-27T14:13:13.795Z,101807.38
2022-08-27T14:15:45.919Z,101812.53
2022-08-27T14:18:58.294Z,101806.84
2022-08-27T14:21:24.241Z,101817.19
2022-08-27T14:23:54.083Z,101811.72
2022-08-27T14:26:23.613Z,101817.19
2022-08-27T14:28:52.169Z,101812.16
2022-08-27T14:31:22.819Z,101811.38
2022-08-27T14:33:54.126Z,101808.22
2022-08-27T14:36:24.392Z,101805.59
2022-08-27T14:38:54.185Z,101816.97
2022-08-27T14:41:24.806Z,101807.78
2022-08-27T14:43:53.392Z,101805.75
2022-08-27T14:46:28.894Z,101815.28
2022-08-27T14:49:00.511Z,101806.34
2022-08-27T14:51:30.986Z,101817.13
2022-08-27T14:53:59.576Z,101807.53
2022-08-27T14:56:28.037Z,101814.94
2022-08-27T14:58:57.829Z,101815.19
2022-08-27T15:01:27.619Z,101814.59
2022-08-27T15:03:57.463Z,101814.84
2022-08-27T15:06:27.221Z,101822.19
2022-08-27T15:08:56.304Z,101818.84
2022-08-27T15:11:28.457Z,101824.47
2022-08-27T15:13:58.629Z,101826.41
2022-08-27T15:16:45.299Z,101815.94
2022-08-27T15:19:15.453Z,101820.47
2022-08-27T15:21:47.416Z,101831.22
2022-08-27T15:24:26.148Z,101818.81
2022-08-27T15:26:59.496Z,101820.56
2022-08-27T15:29:27.866Z,101832.03
2022-08-27T15:31:57.183Z,101828.38
2022-08-27T15:34:25.493Z,101837.25
2022-08-27T15:36:54.156Z,101834.66
2022-08-27T15:39:23.158Z,101840.09
2022-08-27T15:42:05.847Z,101837.56
2022-08-27T15:44:38.730Z,101847.53
2022-08-27T15:47:08.168Z,101854.84
2022-08-27T15:49:36.587Z,101848.69
2022-08-27T15:52:05.304Z,101850.47
2022-08-27T15:54:34.454Z,101852.22
2022-08-27T15:57:03.895Z,101850.41
2022-08-27T15:59:33.136Z,101849.63
2022-08-27T16:02:03.518Z,101854.06
2022-08-27T16:04:32.682Z,101849.53
2022-08-27T16:07:01.251Z,101852.31
2022-08-27T16:09:29.640Z,101863.91
2022-08-27T16:11:58.446Z,101860.47
2022-08-27T16:14:26.845Z,101864.13
2022-08-27T16:16:57.606Z,101863.34
2022-08-27T16:19:28.812Z,101869.69
2022-08-27T16:21:57.146Z,101871.56
2022-08-27T16:24:25.718Z,101870.75
2022-08-27T16:26:54.046Z,101880.59
2022-08-27T16:29:22.381Z,101865.56
2022-08-27T16:31:55.285Z,101864.69
2022-08-27T16:34:27.980Z,101866.56
2022-08-27T16:36:56.748Z,101864.00
2022-08-27T16:39:27.351Z,101866.66
2022-08-27T16:42:00.756Z,101867.56
2022-08-27T16:44:29.739Z,101868.56
2022-08-27T16:46:58.065Z,101877.41
2022-08-27T16:49:45.000Z,101864.03
2022-08-27T16:52:13.336Z,101862.19
2022-08-27T16:54:42.145Z,101860.44
2022-08-27T16:57:11.344Z,101864.91
2022-08-27T16:59:43.278Z,101863.19
2022-08-27T17:02:21.541Z,101865.03
2022-08-27T17:05:01.371Z,101865.16
2022-08-27T17:07:44.080Z,101868.81
2022-08-27T17:10:19.401Z,101872.41
2022-08-27T17:12:48.189Z,101867.16
2022-08-27T17:15:17.953Z,101869.88
2022-08-27T17:17:46.638Z,101867.22
2022-08-27T17:20:15.653Z,101865.38
2022-08-27T17:22:44.197Z,101856.50
2022-08-27T17:25:12.734Z,101866.28
2022-08-27T17:27:41.365Z,101865.38
2022-08-27T17:30:10.385Z,101872.53
2022-08-27T17:32:42.360Z,101863.69
2022-08-27T17:35:11.883Z,101874.44
2022-08-27T17:37:41.069Z,101874.47
2022-08-27T17:40:10.383Z,101878.09
2022-08-27T17:42:39.880Z,101871.91
2022-08-27T17:45:08.891Z,101885.31
2022-08-27T17:47:37.223Z,101881.81
2022-08-27T17:50:05.926Z,101881.81
2022-08-27T17:52:38.234Z,101881.81
2022-08-27T17:55:08.580Z,101886.31
2022-08-27T17:57:40.754Z,101883.69
2022-08-27T18:00:14.189Z,101881.94
2022-08-27T18:02:46.193Z,101891.78
2022-08-27T18:05:18.499Z,101886.47
2022-08-27T18:07:49.230Z,101887.34
2022-08-27T18:10:23.895Z,101887.38
2022-08-27T18:12:55.463Z,101897.16
2022-08-27T18:15:29.326Z,101891.88
2022-08-27T18:17:58.012Z,101898.94
2022-08-27T18:20:28.621Z,101891.00
2022-08-27T18:22:56.912Z,101902.56
2022-08-27T18:25:29.106Z,101899.88
2022-08-27T18:28:03.812Z,101901.69
2022-08-27T18:30:32.830Z,101894.63
2022-08-27T18:33:02.585Z,101904.44
2022-08-27T18:35:33.126Z,101899.16
2022-08-27T18:38:01.911Z,101888.56
2022-08-27T18:40:35.714Z,101897.44
2022-08-27T18:43:05.357Z,101897.44
2022-08-27T18:45:36.239Z,101898.31
2022-08-27T18:48:23.827Z,101902.78
2022-08-27T18:50:58.626Z,101908.16
2022-08-27T18:53:30.480Z,101909.03
2022-08-27T18:56:01.191Z,101902.84
2022-08-27T18:58:32.974Z,101905.53
2022-08-27T19:01:02.925Z,101901.97
2022-08-27T19:03:36.108Z,101912.63
2022-08-27T19:06:08.740Z,101901.97
2022-08-27T19:08:39.855Z,101909.97
2022-08-27T19:11:08.492Z,101906.44
2022-08-27T19:13:37.286Z,101910.03
2022-08-27T19:16:11.899Z,101910.97
2022-08-27T19:18:42.675Z,101916.34
2022-08-27T19:21:11.241Z,101925.28
2022-08-27T19:23:43.044Z,101920.84
2022-08-27T19:26:19.522Z,101915.50
2022-08-27T19:28:48.258Z,101924.41
2022-08-27T19:31:16.801Z,101924.41
2022-08-27T19:33:45.740Z,101922.63
2022-08-27T19:36:17.514Z,101925.28
2022-08-27T19:38:48.978Z,101924.41
2022-08-27T19:41:17.974Z,101926.16
2022-08-27T19:43:46.465Z,101928.81
2022-08-27T19:46:19.908Z,101929.75
2022-08-27T19:48:48.309Z,101931.53
2022-08-27T19:51:18.084Z,101937.78
2022-08-27T19:53:46.584Z,101936.91
2022-08-27T19:56:15.227Z,101937.81
2022-08-27T19:58:44.651Z,101938.72
2022-08-27T20:01:13.136Z,101940.50
2022-08-27T20:03:41.661Z,101939.63
2022-08-27T20:06:10.197Z,101934.31
2022-08-27T20:08:38.605Z,101938.75
2022-08-27T20:11:06.986Z,101934.31
2022-08-27T20:13:35.435Z,101929.91
2022-08-27T20:16:06.671Z,101936.97
2022-08-27T20:18:41.983Z,101929.91
2022-08-27T20:21:10.287Z,101934.31
2022-08-27T20:23:38.688Z,101937.00
2022-08-27T20:26:07.960Z,101921.91
2022-08-27T20:28:40.296Z,101936.09
2022-08-27T20:31:10.216Z,101926.38
2022-08-27T20:33:38.889Z,101918.38
2022-08-27T20:36:08.611Z,101921.03
2022-08-27T20:38:37.234Z,101927.25
2022-08-27T20:41:06.727Z,101931.69
2022-08-27T20:43:36.075Z,101926.38
2022-08-27T20:46:05.881Z,101935.22
2022-08-27T20:48:38.583Z,101933.44
2022-08-27T20:51:06.990Z,101935.22
2022-08-27T20:53:35.463Z,101937.00
2022-08-27T20:56:03.794Z,101928.13
2022-08-27T20:58:50.525Z,101932.56
2022-08-27T21:01:19.442Z,101928.09
2022-08-27T21:03:47.991Z,101940.50
2022-08-27T21:06:24.982Z,101943.16
2022-08-27T21:08:54.807Z,101939.63
2022-08-27T21:11:24.151Z,101938.75
2022-08-27T21:13:56.508Z,101940.56
2022-08-27T21:16:26.216Z,101938.81
2022-08-27T21:18:55.644Z,101933.50
2022-08-27T21:21:24.261Z,101936.19
2022-08-27T21:23:53.743Z,101930.88
2022-08-27T21:26:23.232Z,101933.50
2022-08-27T21:28:55.446Z,101925.53
2022-08-27T21:31:25.581Z,101931.75
2022-08-27T21:33:54.275Z,101932.63
2022-08-27T21:36:22.714Z,101929.94
2022-08-27T21:38:51.106Z,101937.94
2022-08-27T21:41:20.421Z,101941.50
2022-08-27T21:43:50.017Z,101937.03
2022-08-27T21:46:22.272Z,101944.16
2022-08-27T21:48:58.662Z,101942.41
2022-08-27T21:51:27.605Z,101952.16
2022-08-27T21:53:58.670Z,101953.09
2022-08-27T21:56:27.859Z,101952.22
2022-08-27T21:58:56.250Z,101961.94
2022-08-27T22:01:24.682Z,101953.09
2022-08-27T22:03:53.197Z,101946.88
2022-08-27T22:06:21.617Z,101952.22
2022-08-27T22:08:52.505Z,101942.47
2022-08-27T22:11:24.130Z,101941.59
2022-08-27T22:13:53.414Z,101939.81
2022-08-27T22:16:22.082Z,101951.38
2022-08-27T22:18:54.950Z,101940.72
2022-08-27T22:21:25.041Z,101949.59
2022-08-27T22:23:53.537Z,101945.13
2022-08-27T22:26:22.229Z,101947.78
2022-08-27T22:28:51.671Z,101946.00
2022-08-27T22:31:20.520Z,101948.72
2022-08-27T22:33:48.919Z,101941.59
2022-08-27T22:36:19.851Z,101940.72
2022-08-27T22:38:50.818Z,101943.38
2022-08-27T22:41:19.361Z,101940.72
2022-08-27T22:43:49.494Z,101946.94
2022-08-27T22:46:17.877Z,101947.88
2022-08-27T22:48:46.357Z,101952.31
2022-08-27T22:51:14.688Z,101945.19
2022-08-27T22:53:43.203Z,101953.22
2022-08-27T22:56:12.703Z,101945.22
2022-08-27T22:58:45.840Z,101952.34
2022-08-27T23:01:21.869Z,101949.69
2022-08-27T23:03:50.248Z,101954.09
2022-08-27T23:06:19.332Z,101954.97
2022-08-27T23:08:48.004Z,101956.75
2022-08-27T23:11:16.750Z,101961.19
2022-08-27T23:13:47.103Z,101953.22
2022-08-27T23:16:16.005Z,101952.34
2022-08-27T23:18:46.224Z,101955.88
2022-08-27T23:21:17.741Z,101951.44
2022-08-27T23:23:46.485Z,101956.78
2022-08-27T23:26:33.933Z,101946.13
2022-08-27T23:29:02.521Z,101954.09
2022-08-27T23:31:32.912Z,101953.22
2022-08-27T23:34:01.864Z,101960.34
2022-08-27T23:36:30.383Z,101959.44
2022-08-27T23:38:58.774Z,101961.22
2022-08-27T23:41:28.341Z,101956.81
2022-08-27T23:43:57.087Z,101962.13
2022-08-27T23:46:25.913Z,101957.66
2022-08-27T23:48:54.834Z,101957.66
2022-08-27T23:51:23.371Z,101948.81
2022-08-27T23:53:51.701Z,101949.72
2022-08-27T23:56:21.981Z,101953.25
2022-08-27T23:58:59.864Z,101951.47
